Lake Joy, Washington
Current Conditions -  °F | °C
As of 5:53 AM on Monday 24 Nov 2014 (Local Time) from KRNT Reporting Station
Clear Clear  
Wind Chill: 36°   Ceiling: Unl
Heat Index: 39°   Visibility: 10mi
Dew Point: 38°   Wind: 5mph
Humidity: 96%   Direction: 110°ESE
Pressure: 30.34"   Gusts: NA
Location:  47.651°N, 121.896°W
Report Text: KRNT 241353Z AUTO 11004KT 10SM CLR 04/03 A3034 RMK AO2 SLP280 T00390033
Loading
Personal Weather Stations






























Interactive Weather Map New forecast layout! Learn more

10-Day Weather Forecast

Advertisements
Track Severe Weather on mobile